Muir Woods, California
Current Conditions -  °F | °C
As of 3:15 AM on Sunday 23 Nov 2014 (Local Time) from KDVO Reporting Station
NA  
Wind Chill: 45°   Ceiling: NA
Heat Index: 45°   Visibility: NA
Dew Point: 43°   Wind: 0mph
Humidity: 93%   Direction: NA
Pressure: 30.3"   Gusts: NA
Location:  37.8835°N, 122.554°W
Report Text: KDVO 231115Z AUTO 00000KT 07/06 A3030 RMK AO2
Loading
Personal Weather Stations






























Interactive Weather Map New forecast layout! Learn more

10-Day Weather Forecast

Advertisements
Track Severe Weather on mobile